createdAt,value
2018-11-13T00:00:51.762Z,1012.52
2018-11-13T00:01:51.727Z,1012.61
2018-11-13T00:02:51.713Z,1012.53
2018-11-13T00:03:51.738Z,1012.57
2018-11-13T00:04:51.691Z,1012.56
2018-11-13T00:05:51.757Z,1012.60
2018-11-13T00:06:51.668Z,1012.60
2018-11-13T00:07:51.658Z,1012.59
2018-11-13T00:08:51.680Z,1012.54
2018-11-13T00:09:51.639Z,1012.59
2018-11-13T00:10:51.672Z,1012.59
2018-11-13T00:11:51.618Z,1012.59
2018-11-13T00:12:51.670Z,1012.55
2018-11-13T00:13:51.619Z,1012.52
2018-11-13T00:14:51.580Z,1012.54
2018-11-13T00:15:51.572Z,1012.51
2018-11-13T00:16:51.573Z,1012.44
2018-11-13T00:17:51.555Z,1012.49
2018-11-13T00:18:51.540Z,1012.46
2018-11-13T00:19:51.535Z,1012.48
2018-11-13T00:20:51.559Z,1012.53
2018-11-13T00:21:51.516Z,1012.64
2018-11-13T00:22:51.512Z,1012.65
2018-11-13T00:23:51.516Z,1012.65
2018-11-13T00:24:51.476Z,1012.66
2018-11-13T00:25:51.462Z,1012.65
2018-11-13T00:26:51.476Z,1012.68
2018-11-13T00:27:51.444Z,1012.69
2018-11-13T00:28:51.447Z,1012.74
2018-11-13T00:29:51.495Z,1012.79
2018-11-13T00:30:51.409Z,1012.78
2018-11-13T00:31:51.427Z,1012.78
2018-11-13T00:32:51.383Z,1012.79
2018-11-13T00:33:51.390Z,1012.85
2018-11-13T00:34:51.406Z,1012.81
2018-11-13T00:35:51.396Z,1012.81
2018-11-13T00:36:51.340Z,1012.82
2018-11-13T00:37:51.326Z,1012.75
2018-11-13T00:38:51.321Z,1012.70
2018-11-13T00:39:51.366Z,1012.71
2018-11-13T00:40:51.327Z,1012.67
2018-11-13T00:41:51.362Z,1012.62
2018-11-13T00:42:51.271Z,1012.62
2018-11-13T00:43:51.259Z,1012.61
2018-11-13T00:44:51.255Z,1012.64
2018-11-13T00:45:51.270Z,1012.66
2018-11-13T00:46:51.243Z,1012.70
2018-11-13T00:47:51.251Z,1012.62
2018-11-13T00:48:51.228Z,1012.62
2018-11-13T00:49:51.199Z,1012.64
2018-11-13T00:50:51.195Z,1012.61
2018-11-13T00:51:51.198Z,1012.55
2018-11-13T00:52:51.167Z,1012.47
2018-11-13T00:53:51.152Z,1012.39
2018-11-13T00:54:51.180Z,1012.43
2018-11-13T00:55:51.162Z,1012.41
2018-11-13T00:56:51.117Z,1012.37
2018-11-13T00:57:51.148Z,1012.40
2018-11-13T00:58:51.092Z,1012.39
2018-11-13T00:59:51.085Z,1012.33
2018-11-13T01:00:51.177Z,1012.35
2018-11-13T01:01:51.108Z,1012.35
2018-11-13T01:02:51.058Z,1012.37
2018-11-13T01:03:51.069Z,1012.38
2018-11-13T01:04:51.031Z,1012.37
2018-11-13T01:05:51.027Z,1012.37
2018-11-13T01:06:51.013Z,1012.39
2018-11-13T01:07:51.555Z,1012.42
2018-11-13T01:08:50.987Z,1012.43
2018-11-13T01:09:51.063Z,1012.40
2018-11-13T01:10:50.967Z,1012.39
2018-11-13T01:11:51.023Z,1012.41
2018-11-13T01:12:50.947Z,1012.37
2018-11-13T01:13:50.932Z,1012.40
2018-11-13T01:14:50.986Z,1012.41
2018-11-13T01:15:50.940Z,1012.40
2018-11-13T01:16:50.898Z,1012.40
2018-11-13T01:17:50.889Z,1012.48
2018-11-13T01:18:50.879Z,1012.47
2018-11-13T01:19:50.870Z,1012.55
2018-11-13T01:20:50.877Z,1012.49
2018-11-13T01:21:50.890Z,1012.48
2018-11-13T01:22:50.841Z,1012.41
2018-11-13T01:23:50.883Z,1012.40
2018-11-13T01:24:50.828Z,1012.49
2018-11-13T01:25:50.827Z,1012.54
2018-11-13T01:26:50.796Z,1012.53
2018-11-13T01:27:50.815Z,1012.55
2018-11-13T01:28:50.797Z,1012.61
2018-11-13T01:29:50.765Z,1012.63
2018-11-13T01:30:50.752Z,1012.67
2018-11-13T01:31:50.765Z,1012.66
2018-11-13T01:32:50.741Z,1012.69
2018-11-13T01:33:50.725Z,1012.68
2018-11-13T01:34:50.753Z,1012.65
2018-11-13T01:35:50.782Z,1012.71
2018-11-13T01:36:50.691Z,1012.72
2018-11-13T01:37:50.730Z,1012.72
2018-11-13T01:38:50.667Z,1012.74
2018-11-13T01:39:50.689Z,1012.69
2018-11-13T01:40:50.646Z,1012.66
2018-11-13T01:41:50.632Z,1012.70
2018-11-13T01:42:50.630Z,1012.72
2018-11-13T01:43:50.690Z,1012.76
2018-11-13T01:44:50.602Z,1012.78
2018-11-13T01:45:50.661Z,1012.76
2018-11-13T01:46:50.580Z,1012.81
2018-11-13T01:47:50.635Z,1012.82
2018-11-13T01:48:50.553Z,1012.76
2018-11-13T01:49:50.570Z,1012.76
2018-11-13T01:50:50.533Z,1012.77
2018-11-13T01:51:50.625Z,1012.71
2018-11-13T01:52:50.548Z,1012.72
2018-11-13T01:53:50.501Z,1012.72
2018-11-13T01:54:50.492Z,1012.71
2018-11-13T01:55:50.502Z,1012.70
2018-11-13T01:56:50.496Z,1012.80
2018-11-13T01:57:50.458Z,1012.83
2018-11-13T01:58:50.446Z,1012.85
2018-11-13T01:59:50.429Z,1012.89
2018-11-13T02:00:50.448Z,1012.85
2018-11-13T02:01:50.483Z,1012.92
2018-11-13T02:02:50.403Z,1012.93
2018-11-13T02:03:50.402Z,1012.91
2018-11-13T02:04:50.378Z,1012.94
2018-11-13T02:05:50.372Z,1012.81
2018-11-13T02:06:50.360Z,1012.78
2018-11-13T02:07:50.370Z,1012.76
2018-11-13T02:08:50.365Z,1012.67
2018-11-13T02:09:50.380Z,1012.64
2018-11-13T02:10:50.317Z,1012.58
2018-11-13T02:11:50.305Z,1012.57
2018-11-13T02:12:50.293Z,1012.55
2018-11-13T02:13:50.302Z,1012.52
2018-11-13T02:14:50.279Z,1012.50
2018-11-13T02:15:50.268Z,1012.49
2018-11-13T02:16:50.246Z,1012.48
2018-11-13T02:17:50.254Z,1012.44
2018-11-13T02:18:50.253Z,1012.41
2018-11-13T02:19:50.254Z,1012.40
2018-11-13T02:20:50.201Z,1012.44
2018-11-13T02:21:50.193Z,1012.43
2018-11-13T02:22:50.203Z,1012.41
2018-11-13T02:23:50.176Z,1012.42
2018-11-13T02:24:50.259Z,1012.40
2018-11-13T02:25:50.155Z,1012.34
2018-11-13T02:26:50.153Z,1012.35
2018-11-13T02:27:50.126Z,1012.34
2018-11-13T02:28:50.115Z,1012.33
2018-11-13T02:29:50.162Z,1012.36
2018-11-13T02:30:50.100Z,1012.45
2018-11-13T02:31:50.093Z,1012.48
2018-11-13T02:32:50.069Z,1012.48
2018-11-13T02:33:50.070Z,1012.47
2018-11-13T02:34:50.052Z,1012.46
2018-11-13T02:35:50.052Z,1012.46
2018-11-13T02:36:50.051Z,1012.35
2018-11-13T02:37:50.026Z,1012.35
2018-11-13T02:38:50.004Z,1012.28
2018-11-13T02:39:49.995Z,1012.30
2018-11-13T02:40:50.044Z,1012.31
2018-11-13T02:41:49.976Z,1012.41
2018-11-13T02:42:49.959Z,1012.43
2018-11-13T02:43:49.962Z,1012.50
2018-11-13T02:44:49.949Z,1012.57
2018-11-13T02:45:49.929Z,1012.55
2018-11-13T02:46:50.012Z,1012.57
2018-11-13T02:47:49.927Z,1012.54
2018-11-13T02:48:49.908Z,1012.49
2018-11-13T02:49:49.889Z,1012.52
2018-11-13T02:50:49.873Z,1012.50
2018-11-13T02:51:49.972Z,1012.49
2018-11-13T02:52:49.875Z,1012.46
2018-11-13T02:53:49.843Z,1012.44
2018-11-13T02:54:49.843Z,1012.46
2018-11-13T02:55:49.822Z,1012.52
2018-11-13T02:56:49.813Z,1012.59
2018-11-13T02:57:49.818Z,1012.63
2018-11-13T02:58:49.806Z,1012.65
2018-11-13T02:59:49.784Z,1012.68
2018-11-13T03:00:49.762Z,1012.60
2018-11-13T03:01:49.761Z,1012.66
2018-11-13T03:02:49.793Z,1012.64
2018-11-13T03:03:49.734Z,1012.62
2018-11-13T03:04:49.726Z,1012.57
2018-11-13T03:05:49.744Z,1012.57
2018-11-13T03:06:49.709Z,1012.58
2018-11-13T03:07:49.710Z,1012.54
2018-11-13T03:08:49.702Z,1012.54
2018-11-13T03:09:49.670Z,1012.56
2018-11-13T03:10:49.675Z,1012.64
2018-11-13T03:11:49.649Z,1012.66
2018-11-13T03:12:49.633Z,1012.63
2018-11-13T03:13:49.715Z,1012.55
2018-11-13T03:14:49.611Z,1012.56
2018-11-13T03:15:49.607Z,1012.53
2018-11-13T03:16:49.593Z,1012.52
2018-11-13T03:17:49.585Z,1012.52
2018-11-13T03:18:49.606Z,1012.49
2018-11-13T03:19:49.600Z,1012.51
2018-11-13T03:20:49.558Z,1012.53
2018-11-13T03:21:49.551Z,1012.55
2018-11-13T03:22:49.589Z,1012.56
2018-11-13T03:23:49.515Z,1012.52
2018-11-13T03:24:49.536Z,1012.45
2018-11-13T03:25:49.517Z,1012.38
2018-11-13T03:26:49.483Z,1012.37
2018-11-13T03:27:49.468Z,1012.30
2018-11-13T03:28:49.465Z,1012.29
2018-11-13T03:29:49.478Z,1012.39
2018-11-13T03:30:49.473Z,1012.46
2018-11-13T03:31:49.489Z,1012.49
2018-11-13T03:32:49.441Z,1012.49
2018-11-13T03:33:49.407Z,1012.50
2018-11-13T03:34:49.396Z,1012.44
2018-11-13T03:35:49.402Z,1012.41
2018-11-13T03:36:49.431Z,1012.48
2018-11-13T03:37:49.402Z,1012.50
2018-11-13T03:38:49.412Z,1012.54
2018-11-13T03:39:49.338Z,1012.51
2018-11-13T03:40:49.328Z,1012.52
2018-11-13T03:41:49.319Z,1012.50
2018-11-13T03:42:49.324Z,1012.52
2018-11-13T03:43:49.298Z,1012.55
2018-11-13T03:44:49.335Z,1012.54
2018-11-13T03:45:49.280Z,1012.60
2018-11-13T03:46:49.262Z,1012.62
2018-11-13T03:47:49.253Z,1012.72
2018-11-13T03:48:49.251Z,1012.74
2018-11-13T03:49:49.231Z,1012.77
2018-11-13T03:50:49.235Z,1012.76
2018-11-13T03:51:49.219Z,1012.74
2018-11-13T03:52:49.263Z,1012.76
2018-11-13T03:53:49.185Z,1012.78
2018-11-13T03:54:49.176Z,1012.80
2018-11-13T03:55:49.168Z,1012.84
2018-11-13T03:56:49.212Z,1012.82
2018-11-13T03:57:49.141Z,1012.80
2018-11-13T03:58:49.139Z,1012.77
2018-11-13T03:59:49.158Z,1012.73
2018-11-13T04:00:49.128Z,1012.75
2018-11-13T04:01:49.115Z,1012.74
2018-11-13T04:02:49.122Z,1012.74
2018-11-13T04:03:49.113Z,1012.72
2018-11-13T04:04:49.074Z,1012.67
2018-11-13T04:05:49.056Z,1012.68
2018-11-13T04:06:49.053Z,1012.72
2018-11-13T04:07:49.058Z,1012.77
2018-11-13T04:08:49.060Z,1012.82
2018-11-13T04:09:49.010Z,1012.87
2018-11-13T04:10:49.008Z,1012.88
2018-11-13T04:11:49.060Z,1012.93
2018-11-13T04:12:48.992Z,1012.92
2018-11-13T04:13:48.963Z,1012.93
2018-11-13T04:14:49.017Z,1012.92
2018-11-13T04:15:48.964Z,1012.93
2018-11-13T04:16:48.950Z,1012.91
2018-11-13T04:17:48.933Z,1012.83
2018-11-13T04:18:48.921Z,1012.81
2018-11-13T04:19:48.926Z,1012.80
2018-11-13T04:20:48.931Z,1012.79
2018-11-13T04:21:48.901Z,1012.74
2018-11-13T04:22:48.869Z,1012.75
2018-11-13T04:23:48.874Z,1012.75
2018-11-13T04:24:48.852Z,1012.73
2018-11-13T04:25:48.877Z,1012.74
2018-11-13T04:26:48.837Z,1012.76
2018-11-13T04:27:48.851Z,1012.80
2018-11-13T04:28:48.806Z,1012.85
2018-11-13T04:29:48.791Z,1012.85
2018-11-13T04:30:48.861Z,1012.82
2018-11-13T04:31:48.781Z,1012.78
2018-11-13T04:32:48.763Z,1012.71
2018-11-13T04:33:48.750Z,1012.63
2018-11-13T04:34:48.747Z,1012.61
2018-11-13T04:35:48.728Z,1012.62
2018-11-13T04:36:48.736Z,1012.59
2018-11-13T04:37:48.704Z,1012.59
2018-11-13T04:38:48.695Z,1012.61
2018-11-13T04:39:48.691Z,1012.57
2018-11-13T04:40:48.676Z,1012.58
2018-11-13T04:41:48.742Z,1012.63
2018-11-13T04:42:48.676Z,1012.65
2018-11-13T04:43:48.644Z,1012.65
2018-11-13T04:44:48.625Z,1012.58
2018-11-13T04:45:48.620Z,1012.56
2018-11-13T04:46:48.604Z,1012.58
2018-11-13T04:47:48.605Z,1012.66
2018-11-13T04:48:48.611Z,1012.66
2018-11-13T04:49:48.588Z,1012.69
2018-11-13T04:50:48.563Z,1012.71
2018-11-13T04:51:48.660Z,1012.66
2018-11-13T04:52:48.535Z,1012.67
2018-11-13T04:53:48.544Z,1012.65
2018-11-13T04:54:48.517Z,1012.66
2018-11-13T04:55:48.547Z,1012.67
2018-11-13T04:56:48.489Z,1012.68
2018-11-13T04:57:48.492Z,1012.69
2018-11-13T04:58:48.471Z,1012.77
2018-11-13T04:59:48.466Z,1012.79
2018-11-13T05:00:48.502Z,1012.76
2018-11-13T05:01:48.438Z,1012.72
2018-11-13T05:02:48.513Z,1012.63
2018-11-13T05:03:48.416Z,1012.63
2018-11-13T05:04:48.452Z,1012.69
2018-11-13T05:05:48.428Z,1012.70
2018-11-13T05:06:48.385Z,1012.63
2018-11-13T05:07:48.388Z,1012.67
2018-11-13T05:08:48.360Z,1012.67
2018-11-13T05:09:48.369Z,1012.68
2018-11-13T05:10:48.368Z,1012.69
2018-11-13T05:11:48.336Z,1012.69
2018-11-13T05:12:48.326Z,1012.78
2018-11-13T05:13:48.314Z,1012.73
2018-11-13T05:14:48.320Z,1012.69
2018-11-13T05:15:48.283Z,1012.71
2018-11-13T05:16:48.299Z,1012.75
2018-11-13T05:17:48.261Z,1012.76
2018-11-13T05:18:48.247Z,1012.79
2018-11-13T05:19:48.239Z,1012.85
2018-11-13T05:20:48.244Z,1012.83
2018-11-13T05:21:48.230Z,1012.87
2018-11-13T05:22:48.216Z,1012.91
2018-11-13T05:23:48.199Z,1012.91
2018-11-13T05:24:48.184Z,1012.95
2018-11-13T05:25:48.171Z,1013.00
2018-11-13T05:26:48.161Z,1012.96
2018-11-13T05:27:48.201Z,1012.98
2018-11-13T05:28:48.139Z,1012.98
2018-11-13T05:29:48.131Z,1013.04
2018-11-13T05:30:48.118Z,1013.01
2018-11-13T05:31:48.105Z,1013.01
2018-11-13T05:32:48.108Z,1013.04
2018-11-13T05:33:48.136Z,1013.05
2018-11-13T05:34:48.074Z,1013.07
2018-11-13T05:35:48.064Z,1013.14
2018-11-13T05:36:48.052Z,1013.11
2018-11-13T05:37:48.039Z,1013.11
2018-11-13T05:38:48.031Z,1013.05
2018-11-13T05:39:48.049Z,1013.11
2018-11-13T05:40:48.007Z,1013.14
2018-11-13T05:41:48.100Z,1013.07
2018-11-13T05:42:47.989Z,1013.08
2018-11-13T05:43:47.973Z,1013.07
2018-11-13T05:44:47.979Z,1013.05
2018-11-13T05:45:47.973Z,1013.12
2018-11-13T05:46:47.943Z,1013.11
2018-11-13T05:47:47.932Z,1013.17
2018-11-13T05:48:47.927Z,1013.17
2018-11-13T05:49:47.910Z,1013.18
2018-11-13T05:50:47.914Z,1013.15
2018-11-13T05:51:47.920Z,1013.18
2018-11-13T05:52:47.881Z,1013.18
2018-11-13T05:53:47.868Z,1013.21
2018-11-13T05:54:47.861Z,1013.19
2018-11-13T05:55:47.845Z,1013.16
2018-11-13T05:56:47.847Z,1013.17
2018-11-13T05:57:47.823Z,1013.23
2018-11-13T05:58:47.814Z,1013.23
2018-11-13T05:59:47.839Z,1013.22
2018-11-13T06:00:47.790Z,1013.22
2018-11-13T06:01:47.791Z,1013.25
2018-11-13T06:02:47.823Z,1013.19
2018-11-13T06:03:47.759Z,1013.23
2018-11-13T06:04:47.749Z,1013.26
2018-11-13T06:05:47.751Z,1013.26
2018-11-13T06:06:47.734Z,1013.25
2018-11-13T06:07:47.731Z,1013.28
2018-11-13T06:08:47.700Z,1013.27
2018-11-13T06:09:47.689Z,1013.28
2018-11-13T06:10:47.680Z,1013.31
2018-11-13T06:11:47.720Z,1013.28
2018-11-13T06:12:47.663Z,1013.32
2018-11-13T06:13:47.659Z,1013.32
2018-11-13T06:14:47.636Z,1013.26
2018-11-13T06:15:47.625Z,1013.27
2018-11-13T06:16:47.616Z,1013.29
2018-11-13T06:17:47.610Z,1013.30
2018-11-13T06:18:47.626Z,1013.32
2018-11-13T06:19:47.586Z,1013.34
2018-11-13T06:20:47.569Z,1013.35
2018-11-13T06:21:47.565Z,1013.31
2018-11-13T06:22:47.589Z,1013.36
2018-11-13T06:23:47.543Z,1013.35
2018-11-13T06:24:47.566Z,1013.34
2018-11-13T06:25:47.516Z,1013.30
2018-11-13T06:26:47.509Z,1013.34
2018-11-13T06:27:47.494Z,1013.37
2018-11-13T06:28:47.483Z,1013.42
2018-11-13T06:29:47.599Z,1013.44
2018-11-13T06:30:47.485Z,1013.40
2018-11-13T06:31:47.449Z,1013.44
2018-11-13T06:32:47.439Z,1013.44
2018-11-13T06:33:47.432Z,1013.48
2018-11-13T06:34:47.419Z,1013.44
2018-11-13T06:35:47.424Z,1013.45
2018-11-13T06:36:47.416Z,1013.46
2018-11-13T06:37:47.384Z,1013.47
2018-11-13T06:38:47.385Z,1013.44
2018-11-13T06:39:47.361Z,1013.47
2018-11-13T06:40:47.349Z,1013.43
2018-11-13T06:41:47.357Z,1013.45
2018-11-13T06:42:47.337Z,1013.46
2018-11-13T06:43:47.324Z,1013.45
2018-11-13T06:44:47.305Z,1013.48
2018-11-13T06:45:47.294Z,1013.51
2018-11-13T06:46:47.288Z,1013.53
2018-11-13T06:47:47.289Z,1013.63
2018-11-13T06:48:47.273Z,1013.68
2018-11-13T06:49:47.283Z,1013.62
2018-11-13T06:50:47.246Z,1013.67
2018-11-13T06:51:47.232Z,1013.64
2018-11-13T06:52:47.222Z,1013.63
2018-11-13T06:53:47.223Z,1013.58
2018-11-13T06:54:47.196Z,1013.63
2018-11-13T06:55:47.250Z,1013.62
2018-11-13T06:56:47.180Z,1013.69
2018-11-13T06:57:47.164Z,1013.63
2018-11-13T06:58:47.163Z,1013.66
2018-11-13T06:59:47.171Z,1013.66
2018-11-13T07:00:47.129Z,1013.74
2018-11-13T07:01:47.119Z,1013.73
2018-11-13T07:02:47.115Z,1013.76
2018-11-13T07:03:47.104Z,1013.75
2018-11-13T07:04:47.123Z,1013.74
2018-11-13T07:05:47.111Z,1013.80
2018-11-13T07:06:47.065Z,1013.85
2018-11-13T07:07:47.053Z,1013.82
2018-11-13T07:08:47.042Z,1013.81
2018-11-13T07:09:47.035Z,1013.86
2018-11-13T07:10:47.135Z,1013.89
2018-11-13T07:11:47.031Z,1013.86
2018-11-13T07:12:47.004Z,1013.88
2018-11-13T07:13:46.991Z,1013.87
2018-11-13T07:14:46.984Z,1013.84
2018-11-13T07:15:46.968Z,1013.84
2018-11-13T07:16:46.955Z,1013.90
2018-11-13T07:17:46.961Z,1013.87
2018-11-13T07:18:46.933Z,1013.93
2018-11-13T07:19:46.926Z,1013.92
2018-11-13T07:20:46.916Z,1013.91
2018-11-13T07:21:46.936Z,1013.89
2018-11-13T07:22:46.913Z,1013.89
2018-11-13T07:23:46.879Z,1013.86
2018-11-13T07:24:46.866Z,1013.88
2018-11-13T07:25:46.860Z,1013.89
2018-11-13T07:26:46.847Z,1013.94
2018-11-13T07:27:46.971Z,1013.95
2018-11-13T07:28:46.843Z,1013.92
2018-11-13T07:29:46.811Z,1013.93
2018-11-13T07:30:46.800Z,1014.00
2018-11-13T07:31:46.793Z,1014.01
2018-11-13T07:32:46.779Z,1013.97
2018-11-13T07:33:46.770Z,1013.99
2018-11-13T07:34:46.771Z,1013.98
2018-11-13T07:35:46.747Z,1013.93
2018-11-13T07:36:46.734Z,1013.95
2018-11-13T07:37:46.722Z,1013.95
2018-11-13T07:38:46.713Z,1013.99
2018-11-13T07:39:46.719Z,1013.96
2018-11-13T07:40:46.722Z,1013.89
2018-11-13T07:41:46.677Z,1013.91
2018-11-13T07:42:46.666Z,1013.89
2018-11-13T07:43:46.657Z,1014.03
2018-11-13T07:44:46.645Z,1014.03
2018-11-13T07:45:46.672Z,1013.98
2018-11-13T07:46:46.675Z,1014.05
2018-11-13T07:47:46.828Z,1014.10
2018-11-13T07:48:46.600Z,1014.17
2018-11-13T07:49:46.592Z,1014.13
2018-11-13T07:50:46.580Z,1014.17
2018-11-13T07:51:46.582Z,1014.17
2018-11-13T07:52:46.561Z,1014.17
2018-11-13T07:53:46.559Z,1014.26
2018-11-13T07:54:46.533Z,1014.23
2018-11-13T07:55:46.523Z,1014.25
2018-11-13T07:56:46.511Z,1014.25
2018-11-13T07:57:46.515Z,1014.18
2018-11-13T07:58:46.498Z,1014.26
2018-11-13T07:59:46.483Z,1014.22
2018-11-13T08:00:46.473Z,1014.20
2018-11-13T08:01:46.458Z,1014.19
2018-11-13T08:02:46.448Z,1014.24
2018-11-13T08:03:46.521Z,1014.14
2018-11-13T08:04:46.441Z,1014.19
2018-11-13T08:05:46.417Z,1014.12
2018-11-13T08:06:46.474Z,1014.15
2018-11-13T08:07:46.400Z,1014.13
2018-11-13T08:08:46.381Z,1014.09
2018-11-13T08:09:46.391Z,1014.15
2018-11-13T08:10:46.357Z,1014.18
2018-11-13T08:11:46.370Z,1014.21
2018-11-13T08:12:46.431Z,1014.20
2018-11-13T08:13:46.330Z,1014.19
2018-11-13T08:14:46.330Z,1014.29
2018-11-13T08:15:46.317Z,1014.28
2018-11-13T08:16:46.293Z,1014.36
2018-11-13T08:17:46.335Z,1014.33
2018-11-13T08:18:46.342Z,1014.38
2018-11-13T08:19:46.268Z,1014.36
2018-11-13T08:20:46.265Z,1014.45
2018-11-13T08:21:46.242Z,1014.47
2018-11-13T08:22:46.229Z,1014.46
2018-11-13T08:23:46.214Z,1014.53
2018-11-13T08:24:46.207Z,1014.64
2018-11-13T08:25:46.207Z,1014.53
2018-11-13T08:26:46.237Z,1014.61
2018-11-13T08:27:46.274Z,1014.56
2018-11-13T08:28:46.255Z,1014.63
2018-11-13T08:29:46.152Z,1014.52
2018-11-13T08:30:46.139Z,1014.57
2018-11-13T08:31:46.143Z,1014.57
2018-11-13T08:32:46.140Z,1014.62
2018-11-13T08:33:46.107Z,1014.62
2018-11-13T08:34:46.096Z,1014.72
2018-11-13T08:35:46.142Z,1014.67
2018-11-13T08:36:46.071Z,1014.70
2018-11-13T08:37:46.078Z,1014.69
2018-11-13T08:38:46.079Z,1014.78
2018-11-13T08:39:46.038Z,1014.74
2018-11-13T08:40:46.035Z,1014.79
2018-11-13T08:41:46.017Z,1014.79
2018-11-13T08:42:46.008Z,1014.80
2018-11-13T08:43:46.017Z,1014.80
2018-11-13T08:44:45.988Z,1014.86
2018-11-13T08:45:45.977Z,1014.90
2018-11-13T08:46:45.969Z,1014.85
2018-11-13T08:47:45.970Z,1014.90
2018-11-13T08:48:45.942Z,1014.86
2018-11-13T08:49:45.981Z,1014.90
2018-11-13T08:50:45.963Z,1014.88
2018-11-13T08:51:45.912Z,1014.89
2018-11-13T08:52:45.909Z,1014.91
2018-11-13T08:53:45.891Z,1014.87
2018-11-13T08:54:45.873Z,1014.89
2018-11-13T08:55:45.885Z,1014.96
2018-11-13T08:56:45.851Z,1014.91
2018-11-13T08:57:45.887Z,1014.85
2018-11-13T08:58:45.912Z,1014.86
2018-11-13T08:59:45.974Z,1014.80
2018-11-13T09:00:45.818Z,1014.86
2018-11-13T09:01:45.818Z,1014.81
2018-11-13T09:02:45.788Z,1014.82
2018-11-13T09:03:45.778Z,1014.79
2018-11-13T09:04:45.843Z,1014.78
2018-11-13T09:05:45.760Z,1014.79
2018-11-13T09:06:45.745Z,1014.79
2018-11-13T09:07:45.749Z,1014.74
2018-11-13T09:08:45.722Z,1014.86
2018-11-13T09:09:45.727Z,1014.80
2018-11-13T09:10:45.701Z,1014.81
2018-11-13T09:11:45.781Z,1014.80
2018-11-13T09:12:45.682Z,1014.72
2018-11-13T09:13:45.685Z,1014.82
2018-11-13T09:14:45.669Z,1014.74
2018-11-13T09:15:45.649Z,1014.77
2018-11-13T09:16:45.641Z,1014.74
2018-11-13T09:17:45.647Z,1014.73
2018-11-13T09:18:45.657Z,1014.76
2018-11-13T09:19:45.678Z,1014.74
2018-11-13T09:20:45.616Z,1014.81
2018-11-13T09:21:45.603Z,1014.87
2018-11-13T09:22:45.600Z,1014.86
2018-11-13T09:23:45.559Z,1014.79
2018-11-13T09:24:45.564Z,1014.85
2018-11-13T09:25:45.538Z,1014.85
2018-11-13T09:26:45.563Z,1014.81
2018-11-13T09:27:45.527Z,1014.88
2018-11-13T09:28:45.508Z,1014.89
2018-11-13T09:29:45.619Z,1014.91
2018-11-13T09:30:45.733Z,1014.90
2018-11-13T09:31:45.478Z,1014.99
2018-11-13T09:32:45.470Z,1014.89
2018-11-13T09:33:45.455Z,1014.91
2018-11-13T09:34:45.464Z,1014.94
2018-11-13T09:35:45.460Z,1014.95
2018-11-13T09:36:45.452Z,1015.00
2018-11-13T09:37:45.404Z,1015.03
2018-11-13T09:38:45.392Z,1015.00
2018-11-13T09:39:45.399Z,1015.07
2018-11-13T09:40:45.375Z,1014.89
2018-11-13T09:41:45.382Z,1014.98
2018-11-13T09:42:45.353Z,1014.95
2018-11-13T09:43:45.391Z,1014.97
2018-11-13T09:44:45.358Z,1014.98
2018-11-13T09:45:45.355Z,1015.01
2018-11-13T09:46:45.311Z,1015.01
2018-11-13T09:47:45.371Z,1015.07
2018-11-13T09:48:45.291Z,1015.11
2018-11-13T09:49:45.272Z,1015.06
2018-11-13T09:50:45.342Z,1015.16
2018-11-13T09:51:45.260Z,1015.05
2018-11-13T09:52:45.259Z,1015.14
2018-11-13T09:53:45.372Z,1015.05
2018-11-13T09:54:45.219Z,1015.11
2018-11-13T09:55:45.219Z,1015.02
2018-11-13T09:56:45.212Z,1015.02
2018-11-13T09:57:45.188Z,1015.01
2018-11-13T09:58:45.290Z,1015.07
2018-11-13T09:59:45.164Z,1015.00
2018-11-13T10:00:45.439Z,1015.04
2018-11-13T10:01:45.596Z,1015.11
2018-11-13T10:02:45.877Z,1015.15
2018-11-13T10:03:45.905Z,1015.18
2018-11-13T10:04:45.946Z,1015.11
2018-11-13T10:05:45.229Z,1015.12
2018-11-13T10:06:45.131Z,1015.10
2018-11-13T10:07:45.077Z,1015.18
2018-11-13T10:08:45.095Z,1015.12
2018-11-13T10:09:45.058Z,1015.11
2018-11-13T10:10:45.154Z,1015.08
2018-11-13T10:11:45.033Z,1015.11
2018-11-13T10:12:45.032Z,1015.08
2018-11-13T10:13:45.011Z,1015.16
2018-11-13T10:14:45.015Z,1015.21
2018-11-13T10:15:44.986Z,1015.25
2018-11-13T10:16:44.996Z,1015.24
2018-11-13T10:17:45.090Z,1015.27
2018-11-13T10:18:44.958Z,1015.24
2018-11-13T10:19:44.944Z,1015.28
2018-11-13T10:20:44.962Z,1015.25
2018-11-13T10:21:44.925Z,1015.33
2018-11-13T10:22:44.924Z,1015.27
2018-11-13T10:23:44.917Z,1015.30
2018-11-13T10:24:44.888Z,1015.30
2018-11-13T10:25:44.889Z,1015.25
2018-11-13T10:26:44.870Z,1015.32
2018-11-13T10:27:44.924Z,1015.22
2018-11-13T10:28:44.844Z,1015.27
2018-11-13T10:29:44.861Z,1015.33
2018-11-13T10:30:44.831Z,1015.31
2018-11-13T10:31:44.829Z,1015.12
2018-11-13T10:32:44.866Z,1015.24
2018-11-13T10:33:44.827Z,1015.24
2018-11-13T10:34:44.951Z,1015.27
2018-11-13T10:35:44.815Z,1015.37
2018-11-13T10:36:44.765Z,1015.39
2018-11-13T10:37:44.745Z,1015.33
2018-11-13T10:38:44.747Z,1015.31
2018-11-13T10:39:44.738Z,1015.32
2018-11-13T10:40:44.977Z,1015.34
2018-11-13T10:41:44.713Z,1015.33
2018-11-13T10:42:44.707Z,1015.36
2018-11-13T10:43:44.683Z,1015.31
2018-11-13T10:44:44.674Z,1015.32
2018-11-13T10:45:44.709Z,1015.33
2018-11-13T10:46:44.644Z,1015.26
2018-11-13T10:47:44.640Z,1015.35
2018-11-13T10:48:45.670Z,1015.38
2018-11-13T10:49:44.614Z,1015.27
2018-11-13T10:50:44.605Z,1015.28
2018-11-13T10:51:44.610Z,1015.30
2018-11-13T10:52:44.587Z,1015.25
2018-11-13T10:53:44.575Z,1015.28
2018-11-13T10:54:44.560Z,1015.28
2018-11-13T10:55:44.551Z,1015.30
2018-11-13T10:56:44.540Z,1015.32
2018-11-13T10:57:44.551Z,1015.30
2018-11-13T10:58:44.521Z,1015.30
2018-11-13T10:59:44.549Z,1015.35
2018-11-13T11:00:44.495Z,1015.32
2018-11-13T11:01:44.486Z,1015.33
2018-11-13T11:02:44.531Z,1015.40
2018-11-13T11:03:44.475Z,1015.35
2018-11-13T11:04:44.451Z,1015.49
2018-11-13T11:05:44.441Z,1015.44
2018-11-13T11:06:44.436Z,1015.43
2018-11-13T11:07:44.425Z,1015.41
2018-11-13T11:08:44.418Z,1015.49
2018-11-13T11:09:44.395Z,1015.43
2018-11-13T11:10:44.387Z,1015.50
2018-11-13T11:11:44.377Z,1015.50
2018-11-13T11:12:44.376Z,1015.48
2018-11-13T11:13:44.561Z,1015.50
2018-11-13T11:14:44.335Z,1015.51
2018-11-13T11:15:44.368Z,1015.59
2018-11-13T11:16:44.326Z,1015.59
2018-11-13T11:17:44.310Z,1015.56
2018-11-13T11:18:44.348Z,1015.60
2018-11-13T11:19:44.305Z,1015.57
2018-11-13T11:20:44.279Z,1015.55
2018-11-13T11:21:44.284Z,1015.59
2018-11-13T11:22:44.376Z,1015.61
2018-11-13T11:23:44.355Z,1015.64
2018-11-13T11:24:44.244Z,1015.61
2018-11-13T11:25:44.232Z,1015.60
2018-11-13T11:26:44.211Z,1015.67
2018-11-13T11:27:44.248Z,1015.64
2018-11-13T11:28:44.192Z,1015.62
2018-11-13T11:29:44.204Z,1015.68
2018-11-13T11:30:44.165Z,1015.70
2018-11-13T11:31:44.222Z,1015.74
2018-11-13T11:32:44.144Z,1015.73
2018-11-13T11:33:44.144Z,1015.74
2018-11-13T11:34:44.114Z,1015.79
2018-11-13T11:35:44.112Z,1015.64
2018-11-13T11:36:44.093Z,1015.70
2018-11-13T11:37:44.093Z,1015.74
2018-11-13T11:38:44.229Z,1015.70
2018-11-13T11:39:44.058Z,1015.73
2018-11-13T11:40:44.047Z,1015.73
2018-11-13T11:41:44.036Z,1015.69
2018-11-13T11:42:44.060Z,1015.74
2018-11-13T11:43:44.035Z,1015.74
2018-11-13T11:44:44.007Z,1015.82
2018-11-13T11:45:43.996Z,1015.81
2018-11-13T11:46:43.982Z,1015.78
2018-11-13T11:47:43.970Z,1015.71
2018-11-13T11:48:43.961Z,1015.71
2018-11-13T11:49:43.960Z,1015.71
2018-11-13T11:50:43.943Z,1015.75
2018-11-13T11:51:43.927Z,1015.72
2018-11-13T11:52:43.924Z,1015.83
2018-11-13T11:53:43.920Z,1015.80
2018-11-13T11:54:43.908Z,1015.85
2018-11-13T11:55:43.883Z,1015.76
2018-11-13T11:56:43.868Z,1015.89
2018-11-13T11:57:43.857Z,1015.92
2018-11-13T11:58:43.851Z,1016.04
2018-11-13T11:59:43.839Z,1015.91
2018-11-13T12:00:43.951Z,1015.98
2018-11-13T12:01:43.820Z,1016.00
2018-11-13T12:02:43.833Z,1016.04
2018-11-13T12:03:43.801Z,1016.10
2018-11-13T12:04:43.781Z,1016.04
2018-11-13T12:05:43.789Z,1016.04